createdAt,value
2022-10-03T00:02:45.418Z,99371.98
2022-10-03T00:08:19.416Z,99365.23
2022-10-03T00:13:33.189Z,99360.54
2022-10-03T00:18:47.727Z,99362.58
2022-10-03T00:24:22.595Z,99361.82
2022-10-03T00:29:40.144Z,99357.05
2022-10-03T00:35:01.430Z,99349.25
2022-10-03T00:40:28.574Z,99338.80
2022-10-03T00:45:46.030Z,99327.88
2022-10-03T00:50:54.874Z,99318.25
2022-10-03T00:56:23.589Z,99312.23
2022-10-03T01:01:37.332Z,99305.77
2022-10-03T01:07:11.281Z,99303.58
2022-10-03T01:12:47.440Z,99302.96
2022-10-03T01:18:29.254Z,99298.45
2022-10-03T01:24:09.846Z,99300.24
2022-10-03T01:29:39.141Z,99294.91
2022-10-03T01:34:54.384Z,99289.46
2022-10-03T01:40:12.418Z,99289.98
2022-10-03T01:45:29.655Z,99289.27
2022-10-03T01:50:44.334Z,99289.59
2022-10-03T01:56:10.940Z,99288.61
2022-10-03T02:01:37.438Z,99284.18
2022-10-03T02:07:05.783Z,99285.54
2022-10-03T02:12:10.498Z,99282.86
2022-10-03T02:17:52.526Z,99281.35
2022-10-03T02:22:59.942Z,99282.61
2022-10-03T02:28:33.457Z,99280.77
2022-10-03T02:34:00.316Z,99274.77
2022-10-03T02:39:20.909Z,99274.25
2022-10-03T02:45:09.919Z,99266.20
2022-10-03T02:50:49.685Z,99260.12
2022-10-03T02:56:14.196Z,99255.11
2022-10-03T03:01:38.386Z,99248.31
2022-10-03T03:07:05.295Z,99247.89
2022-10-03T03:12:10.943Z,99256.06
2022-10-03T03:17:25.609Z,99255.91
2022-10-03T03:22:50.541Z,99245.95
2022-10-03T03:28:38.053Z,99239.80
2022-10-03T03:33:51.230Z,99238.60
2022-10-03T03:39:21.918Z,99242.38
2022-10-03T03:44:54.402Z,99242.77
2022-10-03T03:50:33.578Z,99234.64
2022-10-03T03:55:48.829Z,99237.94
2022-10-03T04:01:17.372Z,99239.42
2022-10-03T04:06:46.303Z,99235.36
2022-10-03T04:11:51.947Z,99232.79
2022-10-03T04:17:32.177Z,99230.77
2022-10-03T04:22:35.199Z,99229.35
2022-10-03T04:28:07.982Z,99228.55
2022-10-03T04:33:26.296Z,99225.20
2022-10-03T04:39:16.579Z,99220.30
2022-10-03T04:44:47.364Z,99224.86
2022-10-03T04:50:13.288Z,99220.87
2022-10-03T04:55:35.538Z,99225.55
2022-10-03T05:01:01.409Z,99232.81
2022-10-03T05:06:26.837Z,99230.29
2022-10-03T05:11:39.673Z,99221.17
2022-10-03T05:17:03.599Z,99229.27
2022-10-03T05:22:12.690Z,99240.13
2022-10-03T05:27:23.094Z,99235.59
2022-10-03T05:32:42.945Z,99235.84
2022-10-03T05:38:19.398Z,99228.89
2022-10-03T05:43:40.208Z,99224.85
2022-10-03T05:48:54.163Z,99229.87
2022-10-03T05:54:22.430Z,99241.23
2022-10-03T06:00:09.325Z,99236.73
2022-10-03T06:05:31.696Z,99240.40
2022-10-03T06:10:52.408Z,99245.16
2022-10-03T06:16:11.242Z,99254.80
2022-10-03T06:21:23.563Z,99273.20
2022-10-03T06:26:54.187Z,99277.88
2022-10-03T06:32:18.843Z,99288.76
2022-10-03T06:37:48.680Z,99294.46
2022-10-03T06:43:16.480Z,99297.89
2022-10-03T06:48:49.929Z,99296.15
2022-10-03T06:54:44.121Z,99291.59
2022-10-03T07:06:44.434Z,99312.53
2022-10-03T07:18:05.164Z,99331.20
2022-10-03T07:36:16.517Z,99355.62
2022-10-03T07:48:09.177Z,99380.14
2022-10-03T07:53:57.249Z,99393.08
2022-10-03T07:59:47.455Z,99420.45
2022-10-03T08:05:02.260Z,99461.79
2022-10-03T08:10:40.917Z,99502.40
2022-10-03T08:16:11.557Z,99548.86
2022-10-03T08:21:50.061Z,99590.37
2022-10-03T08:26:58.778Z,99615.96
2022-10-03T08:32:39.674Z,99635.61
2022-10-03T08:38:02.014Z,99652.10
2022-10-03T08:43:49.529Z,99670.56
2022-10-03T08:56:04.572Z,99689.62
2022-10-03T09:07:57.453Z,99715.41
2022-10-03T09:13:49.405Z,99726.63
2022-10-03T09:26:09.675Z,99746.18
2022-10-03T09:32:12.895Z,99747.98
2022-10-03T09:37:47.611Z,99751.03
2022-10-03T09:43:14.124Z,99757.49
2022-10-03T09:48:20.096Z,99762.93
2022-10-03T09:53:43.710Z,99757.15
2022-10-03T09:59:07.957Z,99760.77
2022-10-03T10:04:54.281Z,99771.20
2022-10-03T10:10:36.894Z,99786.95
2022-10-03T10:16:11.341Z,99790.15
2022-10-03T10:21:44.240Z,99792.33
2022-10-03T10:27:27.490Z,99807.17
2022-10-03T10:32:48.964Z,99811.45
2022-10-03T10:38:11.432Z,99814.59
2022-10-03T10:43:36.533Z,99816.66
2022-10-03T10:49:02.820Z,99812.05
2022-10-03T10:54:47.520Z,99815.02
2022-10-03T11:00:03.658Z,99813.16
2022-10-03T11:05:41.486Z,99837.19
2022-10-03T11:11:05.606Z,99831.68
2022-10-03T11:16:35.394Z,99832.10
2022-10-03T11:21:56.704Z,99839.17
2022-10-03T11:27:37.010Z,99848.27
2022-10-03T11:33:17.865Z,99859.57
2022-10-03T11:38:24.689Z,99852.44
2022-10-03T11:43:49.822Z,99860.71
2022-10-03T11:49:05.015Z,99876.69
2022-10-03T11:54:29.986Z,99883.21
2022-10-03T11:59:45.530Z,99884.91
2022-10-03T12:04:59.758Z,99877.97
2022-10-03T12:10:16.815Z,99875.71
2022-10-03T12:15:41.830Z,99879.90
2022-10-03T12:21:07.099Z,99883.28
2022-10-03T12:26:18.267Z,99884.54
2022-10-03T12:31:52.866Z,99894.47
2022-10-03T12:37:17.733Z,99894.16
2022-10-03T12:42:41.469Z,99903.77
2022-10-03T12:47:58.800Z,99914.33
2022-10-03T12:53:17.549Z,99916.06
2022-10-03T12:58:37.104Z,99923.27
2022-10-03T13:03:56.661Z,99926.94
2022-10-03T13:09:24.040Z,99939.23
2022-10-03T13:14:45.004Z,99946.64
2022-10-03T13:20:13.461Z,99942.41
2022-10-03T13:25:31.772Z,99950.83
2022-10-03T13:31:01.987Z,99953.00
2022-10-03T13:36:44.660Z,99957.41
2022-10-03T13:42:02.627Z,99962.90
2022-10-03T13:47:20.616Z,99968.05
2022-10-03T13:52:43.738Z,99976.63
2022-10-03T13:57:52.771Z,99974.59
2022-10-03T14:03:16.406Z,99971.50
2022-10-03T14:08:28.717Z,99976.66
2022-10-03T14:13:52.728Z,99974.42
2022-10-03T14:19:01.126Z,99980.96
2022-10-03T14:24:12.451Z,99981.02
2022-10-03T14:29:40.514Z,99985.02
2022-10-03T14:35:04.525Z,99991.78
2022-10-03T14:40:28.416Z,99988.52
2022-10-03T14:45:38.251Z,99983.73
2022-10-03T14:50:42.358Z,99990.98
2022-10-03T14:56:06.630Z,99995.05
2022-10-03T15:01:12.717Z,99990.95
2022-10-03T15:06:35.980Z,99988.17
2022-10-03T15:11:48.731Z,99990.55
2022-10-03T15:16:56.340Z,99992.02
2022-10-03T15:22:07.059Z,100000.25
2022-10-03T15:27:20.365Z,100007.31
2022-10-03T15:32:27.892Z,100009.55
2022-10-03T15:37:41.803Z,100003.09
2022-10-03T15:43:01.056Z,100012.06
2022-10-03T15:48:10.778Z,100004.17
2022-10-03T15:53:36.266Z,100009.72
2022-10-03T15:58:51.733Z,100013.83
2022-10-03T16:04:02.386Z,100017.34
2022-10-03T16:09:40.285Z,100017.98
2022-10-03T16:14:48.170Z,100021.48
2022-10-03T16:20:06.828Z,100025.70
2022-10-03T16:25:25.797Z,100026.21
2022-10-03T16:30:41.125Z,100026.08
2022-10-03T16:35:52.696Z,100023.86
2022-10-03T16:41:02.102Z,100027.70
2022-10-03T16:46:19.094Z,100026.75
2022-10-03T16:51:33.284Z,100029.38
2022-10-03T16:56:45.908Z,100028.61
2022-10-03T17:02:03.380Z,100025.02
2022-10-03T17:07:23.849Z,100028.52
2022-10-03T17:12:40.276Z,100022.34
2022-10-03T17:17:57.432Z,100023.31
2022-10-03T17:23:28.519Z,100019.20
2022-10-03T17:28:54.744Z,100024.61
2022-10-03T17:34:11.938Z,100021.64
2022-10-03T17:39:35.654Z,100024.83
2022-10-03T17:45:03.269Z,100019.96
2022-10-03T17:50:33.310Z,100017.02
2022-10-03T17:55:44.768Z,100019.67
2022-10-03T18:01:00.213Z,100021.52
2022-10-03T18:06:41.449Z,100022.87
2022-10-03T18:11:48.886Z,100018.86
2022-10-03T18:17:19.977Z,100011.66
2022-10-03T18:22:42.804Z,100008.23
2022-10-03T18:27:52.387Z,100003.80
2022-10-03T18:32:58.993Z,100003.83
2022-10-03T18:38:21.962Z,100012.38
2022-10-03T18:43:26.530Z,100007.90
2022-10-03T18:49:23.926Z,100006.27
2022-10-03T18:54:35.786Z,99996.94
2022-10-03T18:59:47.956Z,99995.39
2022-10-03T19:04:58.429Z,99996.04
2022-10-03T19:10:23.401Z,99992.77
2022-10-03T19:15:44.048Z,99988.05
2022-10-03T19:20:51.888Z,99979.02
2022-10-03T19:26:00.966Z,99981.15
2022-10-03T19:31:03.595Z,99986.88
2022-10-03T19:36:11.128Z,99978.50
2022-10-03T19:41:30.392Z,99978.23
2022-10-03T19:47:05.579Z,99986.13
2022-10-03T19:52:28.886Z,99983.89
2022-10-03T19:57:37.638Z,99976.33
2022-10-03T20:02:41.864Z,99978.49
2022-10-03T20:07:51.059Z,99978.64
2022-10-03T20:12:53.967Z,99974.19
2022-10-03T20:18:00.809Z,99967.02
2022-10-03T20:23:06.632Z,99952.15
2022-10-03T20:28:21.305Z,99945.81
2022-10-03T20:33:30.696Z,99940.33
2022-10-03T20:38:58.453Z,99942.48
2022-10-03T20:44:16.250Z,99945.04
2022-10-03T20:49:30.279Z,99944.30
2022-10-03T20:54:58.504Z,99952.69
2022-10-03T21:00:12.668Z,99958.06
2022-10-03T21:05:25.009Z,99950.66
2022-10-03T21:10:36.610Z,99947.13
2022-10-03T21:15:51.445Z,99956.04
2022-10-03T21:21:15.689Z,99955.56
2022-10-03T21:26:24.528Z,99946.24
2022-10-03T21:31:38.738Z,99936.36
2022-10-03T21:36:44.576Z,99928.32
2022-10-03T21:42:08.442Z,99924.49
2022-10-03T21:47:32.438Z,99920.70
2022-10-03T21:52:38.325Z,99918.89
2022-10-03T21:58:09.368Z,99920.58
2022-10-03T22:03:31.625Z,99919.27
2022-10-03T22:08:40.126Z,99918.48
2022-10-03T22:13:54.891Z,99920.89
2022-10-03T22:19:11.888Z,99921.02
2022-10-03T22:24:24.506Z,99911.84
2022-10-03T22:29:44.714Z,99906.11
2022-10-03T22:34:53.400Z,99896.31
2022-10-03T22:40:00.043Z,99889.55
2022-10-03T22:45:04.918Z,99882.65
2022-10-03T22:50:15.067Z,99880.78
2022-10-03T22:55:22.383Z,99877.55
2022-10-03T23:00:28.771Z,99869.96
2022-10-03T23:05:52.967Z,99867.08
2022-10-03T23:11:01.549Z,99861.59
2022-10-03T23:16:23.637Z,99861.03
2022-10-03T23:21:26.917Z,99858.41
2022-10-03T23:26:41.734Z,99858.33
2022-10-03T23:31:53.380Z,99863.59
2022-10-03T23:37:20.204Z,99868.59
2022-10-03T23:42:38.323Z,99873.20
2022-10-03T23:47:53.077Z,99873.52
2022-10-03T23:52:58.671Z,99863.55
2022-10-03T23:58:03.126Z,99865.22
